createdAt,value
2023-04-11T00:01:38.908Z,4.97
2023-04-11T00:04:08.163Z,4.47
2023-04-11T00:06:36.069Z,4.43
2023-04-11T00:09:03.884Z,4.35
2023-04-11T00:11:33.452Z,4.28
2023-04-11T00:14:01.142Z,4.75
2023-04-11T00:16:28.950Z,5.07
2023-04-11T00:18:57.834Z,4.72
2023-04-11T00:21:25.696Z,4.53
2023-04-11T00:23:53.664Z,4.50
2023-04-11T00:26:22.732Z,4.93
2023-04-11T00:28:51.949Z,4.55
2023-04-11T00:31:19.751Z,4.35
2023-04-11T00:33:47.882Z,5.03
2023-04-11T00:36:15.629Z,4.22
2023-04-11T00:38:44.648Z,4.47
2023-04-11T00:41:12.671Z,4.63
2023-04-11T00:43:40.402Z,4.45
2023-04-11T00:46:10.165Z,4.57
2023-04-11T00:48:38.283Z,5.78
2023-04-11T00:51:06.296Z,4.75
2023-04-11T00:53:34.016Z,4.75
2023-04-11T00:56:02.125Z,4.45
2023-04-11T00:58:29.934Z,4.47
2023-04-11T01:00:57.755Z,4.43
2023-04-11T01:03:27.495Z,4.47
2023-04-11T01:05:55.980Z,4.43
2023-04-11T01:08:23.947Z,4.80
2023-04-11T01:10:52.058Z,4.75
2023-04-11T01:13:20.007Z,4.93
2023-04-11T01:15:47.812Z,4.55
2023-04-11T01:18:15.881Z,4.53
2023-04-11T01:20:45.325Z,5.18
2023-04-11T01:23:15.305Z,4.45
2023-04-11T01:25:44.728Z,4.18
2023-04-11T01:28:12.721Z,4.75
2023-04-11T01:30:40.504Z,4.38
2023-04-11T01:33:08.729Z,4.53
2023-04-11T01:35:36.521Z,4.65
2023-04-11T01:38:04.932Z,4.20
2023-04-11T01:40:33.825Z,4.65
2023-04-11T01:43:03.114Z,4.88
2023-04-11T01:45:31.530Z,3.80
2023-04-11T01:47:59.730Z,4.38
2023-04-11T01:50:27.759Z,4.57
2023-04-11T01:52:55.701Z,4.38
2023-04-11T01:55:23.747Z,5.20
2023-04-11T01:57:51.477Z,4.28
2023-04-11T02:00:21.647Z,4.22
2023-04-11T02:02:49.690Z,4.03
2023-04-11T02:05:17.443Z,4.80
2023-04-11T02:07:45.180Z,4.47
2023-04-11T02:10:14.049Z,4.38
2023-04-11T02:12:41.737Z,4.80
2023-04-11T02:15:10.051Z,6.15
2023-04-11T02:17:45.721Z,4.10
2023-04-11T02:20:14.377Z,4.55
2023-04-11T02:22:42.389Z,4.40
2023-04-11T02:25:10.808Z,4.40
2023-04-11T02:27:38.496Z,4.07
2023-04-11T02:30:07.457Z,4.30
2023-04-11T02:32:36.122Z,3.78
2023-04-11T02:35:07.751Z,4.00
2023-04-11T02:37:35.798Z,3.95
2023-04-11T02:40:04.602Z,4.60
2023-04-11T02:42:32.333Z,3.95
2023-04-11T02:45:00.014Z,4.07
2023-04-11T02:47:28.263Z,3.95
2023-04-11T02:49:55.975Z,4.13
2023-04-11T02:52:26.090Z,4.78
2023-04-11T02:54:54.179Z,3.47
2023-04-11T02:57:21.963Z,4.05
2023-04-11T02:59:49.624Z,4.18
2023-04-11T03:02:17.875Z,3.33
2023-04-11T03:04:46.442Z,3.85
2023-04-11T03:07:14.139Z,4.00
2023-04-11T03:09:43.550Z,3.60
2023-04-11T03:12:11.260Z,4.00
2023-04-11T03:14:38.933Z,3.42
2023-04-11T03:17:06.959Z,3.83
2023-04-11T03:19:34.622Z,4.63
2023-04-11T03:22:02.573Z,4.03
2023-04-11T03:24:30.565Z,4.75
2023-04-11T03:26:59.886Z,4.13
2023-04-11T03:29:27.573Z,4.10
2023-04-11T03:31:55.328Z,4.13
2023-04-11T03:34:23.460Z,4.30
2023-04-11T03:36:51.154Z,4.22
2023-04-11T03:39:19.548Z,4.28
2023-04-11T03:41:47.268Z,4.57
2023-04-11T03:44:16.481Z,4.10
2023-04-11T03:46:44.531Z,4.13
2023-04-11T03:49:12.225Z,4.28
2023-04-11T03:51:39.902Z,4.38
2023-04-11T03:54:07.845Z,4.95
2023-04-11T03:56:35.628Z,4.00
2023-04-11T03:59:03.431Z,4.93
2023-04-11T04:01:33.050Z,3.88
2023-04-11T04:06:29.705Z,4.35
2023-04-11T04:08:59.566Z,4.00
2023-04-11T04:11:27.215Z,3.78
2023-04-11T04:13:55.567Z,3.78
2023-04-11T04:16:23.921Z,4.90
2023-04-11T04:18:53.010Z,3.97
2023-04-11T04:21:20.704Z,3.90
2023-04-11T04:23:48.616Z,3.90
2023-04-11T04:26:17.048Z,4.53
2023-04-11T04:28:47.277Z,4.50
2023-04-11T04:31:19.558Z,4.45
2023-04-11T04:33:49.513Z,4.43
2023-04-11T04:36:19.310Z,4.43
2023-04-11T04:38:47.891Z,4.88
2023-04-11T04:41:15.931Z,3.78
2023-04-11T04:43:43.910Z,3.92
2023-04-11T04:46:12.038Z,4.03
2023-04-11T04:48:39.744Z,3.60
2023-04-11T04:51:08.404Z,3.97
2023-04-11T04:53:38.551Z,4.10
2023-04-11T04:56:07.100Z,4.07
2023-04-11T04:58:35.043Z,3.75
2023-04-11T05:01:02.834Z,4.18
2023-04-11T05:03:34.638Z,3.70
2023-04-11T05:06:02.894Z,3.70
2023-04-11T05:08:30.579Z,3.97
2023-04-11T05:10:59.630Z,4.75
2023-04-11T05:13:27.637Z,4.15
2023-04-11T05:15:55.290Z,3.20
2023-04-11T05:18:22.989Z,3.65
2023-04-11T05:20:51.402Z,3.33
2023-04-11T05:23:19.068Z,3.33
2023-04-11T05:25:46.710Z,4.20
2023-04-11T05:28:16.009Z,4.68
2023-04-11T05:30:43.753Z,4.30
2023-04-11T05:33:15.007Z,3.95
2023-04-11T05:35:43.051Z,4.65
2023-04-11T05:38:10.996Z,3.55
2023-04-11T05:40:38.708Z,3.65
2023-04-11T05:43:06.806Z,4.75
2023-04-11T05:45:35.888Z,3.40
2023-04-11T05:48:04.190Z,3.72
2023-04-11T05:50:32.627Z,3.38
2023-04-11T05:53:00.351Z,4.07
2023-04-11T05:55:28.051Z,3.67
2023-04-11T05:57:56.092Z,4.05
2023-04-11T06:00:25.889Z,3.35
2023-04-11T06:02:55.030Z,3.58
2023-04-11T06:05:23.139Z,3.67
2023-04-11T06:07:51.065Z,3.35
2023-04-11T06:10:18.871Z,4.18
2023-04-11T06:12:46.671Z,4.18
2023-04-11T06:15:14.746Z,3.30
2023-04-11T06:17:42.524Z,3.67
2023-04-11T06:20:12.525Z,4.57
2023-04-11T06:22:41.497Z,3.53
2023-04-11T06:25:09.922Z,3.53
2023-04-11T06:27:38.009Z,3.40
2023-04-11T06:30:06.777Z,3.97
2023-04-11T06:32:34.506Z,3.30
2023-04-11T06:35:02.639Z,3.05
2023-04-11T06:37:31.707Z,4.40
2023-04-11T06:40:00.122Z,4.03
2023-04-11T06:42:28.527Z,3.78
2023-04-11T06:44:56.296Z,3.97
2023-04-11T06:47:23.975Z,3.80
2023-04-11T06:49:51.899Z,3.80
2023-04-11T06:52:19.601Z,3.42
2023-04-11T06:54:49.861Z,4.25
2023-04-11T06:57:18.240Z,3.38
2023-04-11T06:59:46.330Z,3.45
2023-04-11T07:02:14.254Z,3.53
2023-04-11T07:04:42.795Z,3.45
2023-04-11T07:07:10.550Z,3.70
2023-04-11T07:09:38.244Z,3.65
2023-04-11T07:12:07.731Z,2.90
2023-04-11T07:14:35.462Z,4.20
2023-04-11T07:17:03.306Z,3.58
2023-04-11T07:19:31.306Z,3.05
2023-04-11T07:21:58.979Z,3.40
2023-04-11T07:24:27.163Z,2.92
2023-04-11T07:26:58.721Z,3.35
2023-04-11T07:29:27.769Z,3.33
2023-04-11T07:31:55.564Z,3.00
2023-04-11T07:34:23.685Z,3.38
2023-04-11T07:36:51.404Z,3.25
2023-04-11T07:39:19.453Z,3.53
2023-04-11T07:41:47.203Z,2.92
2023-04-11T07:44:14.893Z,3.35
2023-04-11T07:46:44.211Z,3.65
2023-04-11T07:49:11.914Z,3.80
2023-04-11T07:51:41.952Z,3.53
2023-04-11T07:54:09.670Z,4.00
2023-04-11T07:56:37.357Z,3.03
2023-04-11T07:59:05.565Z,2.78
2023-04-11T08:01:33.257Z,3.15
2023-04-11T08:04:02.441Z,3.45
2023-04-11T08:06:32.025Z,3.15
2023-04-11T08:09:00.787Z,3.15
2023-04-11T08:11:28.600Z,2.70
2023-04-11T08:13:57.187Z,2.88
2023-04-11T08:16:25.046Z,3.40
2023-04-11T08:18:52.818Z,3.00
2023-04-11T08:21:24.156Z,2.85
2023-04-11T08:23:51.860Z,2.88
2023-04-11T08:26:21.207Z,3.22
2023-04-11T08:28:49.552Z,2.90
2023-04-11T08:31:17.812Z,2.95
2023-04-11T08:33:45.680Z,3.40
2023-04-11T08:36:14.454Z,2.40
2023-04-11T08:38:43.745Z,3.50
2023-04-11T08:41:15.001Z,2.75
2023-04-11T08:43:44.188Z,2.63
2023-04-11T08:46:13.830Z,2.55
2023-04-11T08:51:09.231Z,2.88
2023-04-11T08:53:37.600Z,4.00
2023-04-11T08:56:07.572Z,3.00
2023-04-11T08:58:35.280Z,3.10
2023-04-11T09:01:26.612Z,2.58
2023-04-11T09:03:54.603Z,2.58
2023-04-11T09:06:22.611Z,2.60
2023-04-11T09:08:50.990Z,2.45
2023-04-11T09:11:20.764Z,3.15
2023-04-11T09:13:48.590Z,2.45
2023-04-11T09:16:16.901Z,2.40
2023-04-11T09:18:46.497Z,2.85
2023-04-11T09:21:16.813Z,2.20
2023-04-11T09:23:44.615Z,1.90
2023-04-11T09:26:13.940Z,2.33
2023-04-11T09:28:45.569Z,1.92
2023-04-11T09:31:14.074Z,2.10
2023-04-11T09:33:55.147Z,2.50
2023-04-11T09:36:27.100Z,2.00
2023-04-11T09:38:56.587Z,2.47
2023-04-11T09:41:32.354Z,2.00
2023-04-11T09:44:02.390Z,2.20
2023-04-11T09:46:30.298Z,2.50
2023-04-11T09:48:58.441Z,1.90
2023-04-11T09:53:58.928Z,2.55
2023-04-11T09:56:28.256Z,1.70
2023-04-11T09:58:58.264Z,2.20
2023-04-11T10:01:28.594Z,2.72
2023-04-11T10:03:57.725Z,2.20
2023-04-11T10:09:08.060Z,2.35
2023-04-11T10:11:37.092Z,2.05
2023-04-11T10:14:05.076Z,2.08
2023-04-11T10:16:34.458Z,2.33
2023-04-11T10:24:21.386Z,1.92
2023-04-11T10:26:54.507Z,2.05
2023-04-11T10:29:51.825Z,2.47
2023-04-11T10:32:26.458Z,2.65
2023-04-11T10:35:23.637Z,2.00
2023-04-11T10:37:52.131Z,2.42
2023-04-11T10:40:20.924Z,2.22
2023-04-11T10:42:49.433Z,2.85
2023-04-11T10:45:23.992Z,2.25
2023-04-11T10:48:11.855Z,2.20
2023-04-11T10:50:44.977Z,2.45
2023-04-11T10:53:38.376Z,2.22
2023-04-11T10:56:07.111Z,2.30
2023-04-11T10:58:40.028Z,2.53
2023-04-11T11:03:57.934Z,2.78
2023-04-11T11:06:27.496Z,2.03
2023-04-11T11:08:55.174Z,2.10
2023-04-11T11:11:22.862Z,2.10
2023-04-11T11:13:52.768Z,2.35
2023-04-11T11:16:21.765Z,1.95
2023-04-11T11:18:50.964Z,2.50
2023-04-11T11:21:28.586Z,2.20
2023-04-11T11:23:58.620Z,2.15
2023-04-11T11:26:40.731Z,1.92
2023-04-11T11:29:09.060Z,1.88
2023-04-11T11:31:42.159Z,2.70
2023-04-11T11:36:46.256Z,2.15
2023-04-11T11:39:15.477Z,2.17
2023-04-11T11:41:43.291Z,2.03
2023-04-11T11:44:23.265Z,1.52
2023-04-11T11:47:04.134Z,2.67
2023-04-11T11:49:48.248Z,2.00
2023-04-11T11:52:33.701Z,2.10
2023-04-11T11:55:02.733Z,2.50
2023-04-11T11:57:30.598Z,1.77
2023-04-11T11:59:59.446Z,2.92
2023-04-11T12:02:29.047Z,2.75
2023-04-11T12:04:59.808Z,2.00
2023-04-11T12:07:32.805Z,2.60
2023-04-11T12:10:02.454Z,1.98
2023-04-11T12:15:03.385Z,2.40
2023-04-11T12:17:37.860Z,2.20
2023-04-11T12:20:07.866Z,2.55
2023-04-11T12:22:36.586Z,2.45
2023-04-11T12:25:10.266Z,2.23
2023-04-11T12:27:39.012Z,2.53
2023-04-11T12:30:07.864Z,2.13
2023-04-11T12:32:36.218Z,2.95
2023-04-11T12:35:05.670Z,2.38
2023-04-11T12:37:33.956Z,2.80
2023-04-11T12:40:01.894Z,3.03
2023-04-11T12:44:59.889Z,2.83
2023-04-11T12:47:27.570Z,3.20
2023-04-11T12:49:55.516Z,2.97
2023-04-11T12:52:23.268Z,2.90
2023-04-11T12:54:50.992Z,2.97
2023-04-11T12:57:19.018Z,2.65
2023-04-11T12:59:48.156Z,2.17
2023-04-11T13:02:16.237Z,2.20
2023-04-11T13:04:44.906Z,2.47
2023-04-11T13:07:12.741Z,1.85
2023-04-11T13:09:40.450Z,2.08
2023-04-11T13:12:08.470Z,2.00
2023-04-11T13:14:37.434Z,1.60
2023-04-11T13:17:06.533Z,2.10
2023-04-11T13:19:34.480Z,1.90
2023-04-11T13:22:02.117Z,1.98
2023-04-11T13:24:31.552Z,2.13
2023-04-11T13:27:00.206Z,1.67
2023-04-11T13:29:27.919Z,1.67
2023-04-11T13:31:55.695Z,2.00
2023-04-11T13:34:25.405Z,1.70
2023-04-11T13:39:20.697Z,1.52
2023-04-11T13:41:48.917Z,1.70
2023-04-11T13:44:16.583Z,2.30
2023-04-11T13:46:44.256Z,2.25
2023-04-11T13:49:12.034Z,1.80
2023-04-11T13:51:41.334Z,2.10
2023-04-11T13:54:09.021Z,1.40
2023-04-11T13:56:38.084Z,2.08
2023-04-11T13:59:05.995Z,1.52
2023-04-11T14:01:33.840Z,1.60
2023-04-11T14:04:02.381Z,1.70
2023-04-11T14:06:30.589Z,1.77
2023-04-11T14:08:59.636Z,1.70
2023-04-11T14:11:27.997Z,2.45
2023-04-11T14:13:56.108Z,1.75
2023-04-11T14:16:24.082Z,2.08
2023-04-11T14:18:52.611Z,1.65
2023-04-11T14:21:21.158Z,2.25
2023-04-11T14:23:49.324Z,1.75
2023-04-11T14:26:18.984Z,1.58
2023-04-11T14:31:14.241Z,1.80
2023-04-11T14:33:42.534Z,1.70
2023-04-11T14:36:10.997Z,2.00
2023-04-11T14:38:38.658Z,2.10
2023-04-11T14:41:07.198Z,2.00
2023-04-11T14:43:36.900Z,1.75
2023-04-11T14:46:04.717Z,2.35
2023-04-11T14:48:32.983Z,1.90
2023-04-11T14:51:03.862Z,2.00
2023-04-11T14:53:31.596Z,2.15
2023-04-11T14:55:59.869Z,2.00
2023-04-11T14:58:27.514Z,2.33
2023-04-11T15:00:56.931Z,2.30
2023-04-11T15:03:25.693Z,1.90
2023-04-11T15:05:53.831Z,1.63
2023-04-11T15:08:21.852Z,2.22
2023-04-11T15:10:54.744Z,1.98
2023-04-11T15:13:23.033Z,1.60
2023-04-11T15:15:51.422Z,1.85
2023-04-11T15:18:25.645Z,2.20
2023-04-11T15:20:53.558Z,1.73
2023-04-11T15:23:22.139Z,1.95
2023-04-11T15:25:56.113Z,1.60
2023-04-11T15:28:25.221Z,2.00
2023-04-11T15:30:54.027Z,1.55
2023-04-11T15:33:24.537Z,1.67
2023-04-11T15:35:53.630Z,1.83
2023-04-11T15:38:22.044Z,1.73
2023-04-11T15:40:50.854Z,1.40
2023-04-11T15:43:18.802Z,1.67
2023-04-11T15:45:46.529Z,1.70
2023-04-11T15:48:15.120Z,1.38
2023-04-11T15:50:45.781Z,1.50
2023-04-11T15:53:13.554Z,1.80
2023-04-11T15:55:42.588Z,1.90
2023-04-11T15:58:10.684Z,2.05
2023-04-11T16:00:38.849Z,2.10
2023-04-11T16:03:09.072Z,2.35
2023-04-11T16:05:38.406Z,2.03
2023-04-11T16:08:07.487Z,1.90
2023-04-11T16:10:35.833Z,1.75
2023-04-11T16:13:03.614Z,1.58
2023-04-11T16:15:31.318Z,2.00
2023-04-11T16:17:59.565Z,1.88
2023-04-11T16:20:27.298Z,2.13
2023-04-11T16:22:54.968Z,2.05
2023-04-11T16:25:24.609Z,1.92
2023-04-11T16:30:20.980Z,1.90
2023-04-11T16:32:49.540Z,2.03
2023-04-11T16:35:17.871Z,2.10
2023-04-11T16:37:45.779Z,1.90
2023-04-11T16:40:14.685Z,1.92
2023-04-11T16:42:44.010Z,2.05
2023-04-11T16:45:12.040Z,1.98
2023-04-11T16:47:40.331Z,1.90
2023-04-11T16:50:08.974Z,1.73
2023-04-11T16:52:36.668Z,2.30
2023-04-11T16:55:05.061Z,2.15
2023-04-11T16:57:33.809Z,2.22
2023-04-11T17:00:16.837Z,2.00
2023-04-11T17:02:44.834Z,2.17
2023-04-11T17:05:12.861Z,1.70
2023-04-11T17:07:41.401Z,1.40
2023-04-11T17:10:10.056Z,1.80
2023-04-11T17:12:37.740Z,1.70
2023-04-11T17:15:08.896Z,1.60
2023-04-11T17:17:36.844Z,1.95
2023-04-11T17:20:09.458Z,1.50
2023-04-11T17:22:41.160Z,1.30
2023-04-11T17:25:09.654Z,1.45
2023-04-11T17:27:37.424Z,1.40
2023-04-11T17:30:09.614Z,1.58
2023-04-11T17:32:38.376Z,1.50
2023-04-11T17:35:06.969Z,2.03
2023-04-11T17:37:36.424Z,1.80
2023-04-11T17:40:12.959Z,1.85
2023-04-11T17:42:41.709Z,1.58
2023-04-11T17:45:17.683Z,1.90
2023-04-11T17:47:47.338Z,1.85
2023-04-11T17:50:15.448Z,1.70
2023-04-11T17:52:44.637Z,1.90
2023-04-11T17:55:14.223Z,1.98
2023-04-11T17:57:42.531Z,1.85
2023-04-11T18:00:20.010Z,2.00
2023-04-11T18:02:50.039Z,2.00
2023-04-11T18:05:24.344Z,2.30
2023-04-11T18:07:54.250Z,2.00
2023-04-11T18:10:23.956Z,2.00
2023-04-11T18:15:24.781Z,2.22
2023-04-11T18:17:53.545Z,2.00
2023-04-11T18:20:21.547Z,1.90
2023-04-11T18:22:55.015Z,2.20
2023-04-11T18:25:23.289Z,2.40
2023-04-11T18:27:51.045Z,2.50
2023-04-11T18:30:19.261Z,2.30
2023-04-11T18:32:50.632Z,2.47
2023-04-11T18:35:20.485Z,2.13
2023-04-11T18:37:48.193Z,1.95
2023-04-11T18:40:17.118Z,2.30
2023-04-11T18:42:47.869Z,2.33
2023-04-11T18:45:17.861Z,2.25
2023-04-11T18:47:46.357Z,2.38
2023-04-11T18:50:16.564Z,2.53
2023-04-11T18:52:45.588Z,2.28
2023-04-11T18:55:15.549Z,2.00
2023-04-11T18:57:48.433Z,2.40
2023-04-11T19:00:19.320Z,2.33
2023-04-11T19:02:50.803Z,2.80
2023-04-11T19:05:20.650Z,2.53
2023-04-11T19:07:48.471Z,2.75
2023-04-11T19:10:16.719Z,2.42
2023-04-11T19:12:44.405Z,2.22
2023-04-11T19:15:13.326Z,2.30
2023-04-11T19:17:41.692Z,2.13
2023-04-11T19:20:12.670Z,1.60
2023-04-11T19:22:43.307Z,2.30
2023-04-11T19:25:12.285Z,2.50
2023-04-11T19:27:41.759Z,2.70
2023-04-11T19:32:42.855Z,2.23
2023-04-11T19:35:12.600Z,2.28
2023-04-11T19:37:42.537Z,2.58
2023-04-11T19:40:13.969Z,2.40
2023-04-11T19:42:42.045Z,2.20
2023-04-11T19:45:11.064Z,2.17
2023-04-11T19:47:40.760Z,2.25
2023-04-11T19:52:41.787Z,2.65
2023-04-11T19:55:10.428Z,2.65
2023-04-11T19:57:38.707Z,2.72
2023-04-11T20:00:12.599Z,2.63
2023-04-11T20:02:44.388Z,2.92
2023-04-11T20:05:13.142Z,2.40
2023-04-11T20:07:42.513Z,2.40
2023-04-11T20:10:11.131Z,2.78
2023-04-11T20:12:39.280Z,2.70
2023-04-11T20:15:08.110Z,2.50
2023-04-11T20:17:36.788Z,3.00
2023-04-11T20:20:09.307Z,2.50
2023-04-11T20:22:38.499Z,2.92
2023-04-11T20:25:11.817Z,2.75
2023-04-11T20:27:40.147Z,2.20
2023-04-11T20:30:10.772Z,2.20
2023-04-11T20:32:38.988Z,2.45
2023-04-11T20:35:08.585Z,2.30
2023-04-11T20:40:06.658Z,2.80
2023-04-11T20:42:39.707Z,2.55
2023-04-11T20:45:10.514Z,2.50
2023-04-11T20:47:38.846Z,2.45
2023-04-11T20:50:10.463Z,2.60
2023-04-11T20:52:41.058Z,2.90
2023-04-11T20:55:10.261Z,2.45
2023-04-11T20:57:39.368Z,2.30
2023-04-11T21:00:14.114Z,2.30
2023-04-11T21:02:44.162Z,2.47
2023-04-11T21:05:12.891Z,2.22
2023-04-11T21:07:41.599Z,2.42
2023-04-11T21:10:10.525Z,2.17
2023-04-11T21:12:39.743Z,2.63
2023-04-11T21:15:08.830Z,2.30
2023-04-11T21:17:39.294Z,2.38
2023-04-11T21:20:10.392Z,2.55
2023-04-11T21:22:38.294Z,2.35
2023-04-11T21:25:06.729Z,2.67
2023-04-11T21:27:34.995Z,2.70
2023-04-11T21:30:04.166Z,2.58
2023-04-11T21:32:31.902Z,2.17
2023-04-11T21:35:01.381Z,2.47
2023-04-11T21:37:29.089Z,3.38
2023-04-11T21:39:56.776Z,2.45
2023-04-11T21:42:25.140Z,2.28
2023-04-11T21:44:52.814Z,2.00
2023-04-11T21:47:22.261Z,1.73
2023-04-11T21:49:50.571Z,1.90
2023-04-11T21:52:18.244Z,1.90
2023-04-11T21:54:45.992Z,2.28
2023-04-11T21:57:14.084Z,1.90
2023-04-11T21:59:41.781Z,1.50
2023-04-11T22:02:09.649Z,1.80
2023-04-11T22:04:51.693Z,1.63
2023-04-11T22:10:09.077Z,1.50
2023-04-11T22:12:37.685Z,1.60
2023-04-11T22:15:06.595Z,1.90
2023-04-11T22:17:34.887Z,1.50
2023-04-11T22:20:04.974Z,1.83
2023-04-11T22:22:32.821Z,2.15
2023-04-11T22:25:01.531Z,2.08
2023-04-11T22:27:29.396Z,2.30
2023-04-11T22:29:57.297Z,1.77
2023-04-11T22:32:25.885Z,1.60
2023-04-11T22:34:53.790Z,1.50
2023-04-11T22:37:22.937Z,1.80
2023-04-11T22:39:51.228Z,1.70
2023-04-11T22:42:19.220Z,1.52
2023-04-11T22:44:46.893Z,1.77
2023-04-11T22:47:16.886Z,1.77
2023-04-11T22:49:45.077Z,1.80
2023-04-11T22:52:14.769Z,1.60
2023-04-11T22:54:45.165Z,1.90
2023-04-11T22:57:12.819Z,1.77
2023-04-11T22:59:40.741Z,1.67
2023-04-11T23:02:09.047Z,2.10
2023-04-11T23:04:36.980Z,2.20
2023-04-11T23:07:05.085Z,2.50
2023-04-11T23:09:33.273Z,2.40
2023-04-11T23:12:02.527Z,2.50
2023-04-11T23:14:31.354Z,2.20
2023-04-11T23:16:59.783Z,2.25
2023-04-11T23:19:29.959Z,2.35
2023-04-11T23:21:57.842Z,2.00
2023-04-11T23:24:27.241Z,2.10
2023-04-11T23:26:54.915Z,1.90
2023-04-11T23:29:23.925Z,1.50
2023-04-11T23:31:52.061Z,1.77
2023-04-11T23:34:20.936Z,1.88
2023-04-11T23:36:49.233Z,1.65
2023-04-11T23:39:17.477Z,1.58
2023-04-11T23:41:45.218Z,1.80
2023-04-11T23:44:12.884Z,1.52
2023-04-11T23:46:42.560Z,1.58
2023-04-11T23:49:10.283Z,1.80
2023-04-11T23:51:38.152Z,1.60
2023-04-11T23:54:07.584Z,1.60
2023-04-11T23:56:35.266Z,1.55
2023-04-11T23:59:03.331Z,1.50
